Friars Point, Mississippi
Current Conditions -  °F | °C
As of 8:35 AM on Friday 28 Nov 2014 (Local Time) from KCKM Reporting Station
Clear Clear  
Wind Chill: 29°   Ceiling: Unl
Heat Index: 36°   Visibility: 10mi
Dew Point: 32°   Wind: 9mph
Humidity: 87%   Direction: 140°SE
Pressure: 30.43"   Gusts: NA
Location:  34.37°N, 90.64°W
Report Text: KCKM 281435Z AUTO 14008KT 10SM CLR 02/00 A3043 RMK AO1
Loading
Personal Weather Stations






























Interactive Weather Map New forecast layout! Learn more

10-Day Weather Forecast

Advertisements
Track Severe Weather on mobile